aviador You're here:

KLUL Decoded Metar

LAUREL in MS, USA
Report Time2018-05-21 20:15:00
UTC Time2018-05-21 20:23:21
Flight Rules unknown UNKNOWN
Wind100° at 08 kt
W.Decomp.*RWY 13: 6.9 kt HW 4 kt LCW
W.Rank100° ranks 12
Current wind is above 100° avg. (5.2)
VisibilityN/A
Phenomena:N/A
Clouds:Scattered 039 Hf
Scattered 049 Hf
Expected CloudBase > 4,400 ft AGL from Temp-Dew spread
CeilingNone
Temp30°C (ISA +16)
Dew Point19°C (52% RH)
Heat Index31.4°C
QNH1015 hPa
Density Alt2,310 ft
Elevation299 ft
Report Wrong Elevation
Raw Report
KLUL 212015Z AUTO 10008KT SCT039 SCT049 30/19 A2998 RMK AO2
T03010193=

Extra information for KLUL:More info

Metar Taf Metar & Taf Last 4 Metars F.Rules Stats Wind Profile Meteogram Temp Stats Airport Information Weather charts Add Link Nearby VenuesMetar ALERT Operation Metar Decoded Social comments

AIRNAV info for KLUL